sensor_id;sensor_type;location;lat;lon;timestamp;P1;durP1;ratioP1;P2;durP2;ratioP2
11514;SDS011;5814;41.936;25.556;2022-11-14T00:01:40;42.93;;;38.53;;
11514;SDS011;5814;41.936;25.556;2022-11-14T00:04:07;42.50;;;38.00;;
11514;SDS011;5814;41.936;25.556;2022-11-14T00:06:35;41.40;;;37.27;;
11514;SDS011;5814;41.936;25.556;2022-11-14T00:09:01;43.77;;;39.37;;
11514;SDS011;5814;41.936;25.556;2022-11-14T00:11:29;41.77;;;37.43;;
11514;SDS011;5814;41.936;25.556;2022-11-14T00:13:56;41.70;;;37.40;;
11514;SDS011;5814;41.936;25.556;2022-11-14T00:16:23;50.73;;;44.33;;
11514;SDS011;5814;41.936;25.556;2022-11-14T00:18:50;41.70;;;37.40;;
11514;SDS011;5814;41.936;25.556;2022-11-14T00:21:17;41.70;;;37.43;;
11514;SDS011;5814;41.936;25.556;2022-11-14T00:23:45;41.77;;;37.47;;
11514;SDS011;5814;41.936;25.556;2022-11-14T00:26:12;41.13;;;37.03;;
11514;SDS011;5814;41.936;25.556;2022-11-14T00:28:39;40.80;;;36.50;;
11514;SDS011;5814;41.936;25.556;2022-11-14T00:31:07;49.57;;;44.70;;
11514;SDS011;5814;41.936;25.556;2022-11-14T00:33:33;39.83;;;35.67;;
11514;SDS011;5814;41.936;25.556;2022-11-14T00:36:00;39.23;;;35.43;;
11514;SDS011;5814;41.936;25.556;2022-11-14T00:38:28;40.13;;;36.17;;
11514;SDS011;5814;41.936;25.556;2022-11-14T00:40:55;39.07;;;35.20;;
11514;SDS011;5814;41.936;25.556;2022-11-14T00:43:22;40.60;;;36.27;;
11514;SDS011;5814;41.936;25.556;2022-11-14T00:45:49;40.07;;;36.03;;
11514;SDS011;5814;41.936;25.556;2022-11-14T00:48:16;40.33;;;36.20;;
11514;SDS011;5814;41.936;25.556;2022-11-14T00:50:44;39.77;;;35.80;;
11514;SDS011;5814;41.936;25.556;2022-11-14T00:53:11;40.33;;;36.13;;
11514;SDS011;5814;41.936;25.556;2022-11-14T00:55:38;40.63;;;36.43;;
11514;SDS011;5814;41.936;25.556;2022-11-14T00:58:05;41.87;;;37.67;;
11514;SDS011;5814;41.936;25.556;2022-11-14T01:00:32;41.33;;;36.97;;
11514;SDS011;5814;41.936;25.556;2022-11-14T01:02:59;40.80;;;36.50;;
11514;SDS011;5814;41.936;25.556;2022-11-14T01:05:27;40.57;;;36.43;;
11514;SDS011;5814;41.936;25.556;2022-11-14T01:07:54;38.47;;;34.73;;
11514;SDS011;5814;41.936;25.556;2022-11-14T01:10:21;38.90;;;35.20;;
11514;SDS011;5814;41.936;25.556;2022-11-14T01:12:48;47.93;;;43.10;;
11514;SDS011;5814;41.936;25.556;2022-11-14T01:15:16;38.03;;;34.43;;
11514;SDS011;5814;41.936;25.556;2022-11-14T01:17:43;49.70;;;44.60;;
11514;SDS011;5814;41.936;25.556;2022-11-14T01:20:10;38.63;;;34.83;;
11514;SDS011;5814;41.936;25.556;2022-11-14T01:22:37;39.70;;;35.90;;
11514;SDS011;5814;41.936;25.556;2022-11-14T01:25:05;39.13;;;35.33;;
11514;SDS011;5814;41.936;25.556;2022-11-14T01:27:33;39.50;;;35.47;;
11514;SDS011;5814;41.936;25.556;2022-11-14T01:30:00;46.40;;;41.83;;
11514;SDS011;5814;41.936;25.556;2022-11-14T01:32:27;39.90;;;36.00;;
11514;SDS011;5814;41.936;25.556;2022-11-14T01:34:54;39.27;;;35.50;;
11514;SDS011;5814;41.936;25.556;2022-11-14T01:37:22;39.73;;;35.83;;
11514;SDS011;5814;41.936;25.556;2022-11-14T01:39:49;48.63;;;43.80;;
11514;SDS011;5814;41.936;25.556;2022-11-14T01:42:16;39.73;;;35.63;;
11514;SDS011;5814;41.936;25.556;2022-11-14T01:44:45;39.60;;;35.47;;
11514;SDS011;5814;41.936;25.556;2022-11-14T01:47:11;40.57;;;36.47;;
11514;SDS011;5814;41.936;25.556;2022-11-14T01:49:40;40.67;;;36.30;;
11514;SDS011;5814;41.936;25.556;2022-11-14T01:52:09;40.57;;;36.40;;
11514;SDS011;5814;41.936;25.556;2022-11-14T01:54:36;41.00;;;36.90;;
11514;SDS011;5814;41.936;25.556;2022-11-14T01:57:02;49.27;;;44.27;;
11514;SDS011;5814;41.936;25.556;2022-11-14T01:59:31;40.00;;;35.90;;
11514;SDS011;5814;41.936;25.556;2022-11-14T02:01:59;40.17;;;35.97;;
11514;SDS011;5814;41.936;25.556;2022-11-14T02:04:28;39.53;;;35.40;;
11514;SDS011;5814;41.936;25.556;2022-11-14T02:06:57;39.13;;;35.13;;
11514;SDS011;5814;41.936;25.556;2022-11-14T02:09:23;39.97;;;36.00;;
11514;SDS011;5814;41.936;25.556;2022-11-14T02:11:50;39.07;;;35.10;;
11514;SDS011;5814;41.936;25.556;2022-11-14T02:14:17;47.83;;;43.10;;
11514;SDS011;5814;41.936;25.556;2022-11-14T02:16:45;39.73;;;35.87;;
11514;SDS011;5814;41.936;25.556;2022-11-14T02:19:13;50.47;;;45.23;;
11514;SDS011;5814;41.936;25.556;2022-11-14T02:21:40;38.47;;;34.77;;
11514;SDS011;5814;41.936;25.556;2022-11-14T02:24:09;50.40;;;44.97;;
11514;SDS011;5814;41.936;25.556;2022-11-14T02:26:36;46.23;;;41.43;;
11514;SDS011;5814;41.936;25.556;2022-11-14T02:29:03;46.47;;;41.70;;
11514;SDS011;5814;41.936;25.556;2022-11-14T02:31:30;47.03;;;42.20;;
11514;SDS011;5814;41.936;25.556;2022-11-14T02:33:57;40.80;;;36.50;;
11514;SDS011;5814;41.936;25.556;2022-11-14T02:36:24;46.97;;;41.87;;
11514;SDS011;5814;41.936;25.556;2022-11-14T02:38:51;46.07;;;41.10;;
11514;SDS011;5814;41.936;25.556;2022-11-14T02:41:19;41.53;;;36.90;;
11514;SDS011;5814;41.936;25.556;2022-11-14T02:43:46;48.47;;;41.47;;
11514;SDS011;5814;41.936;25.556;2022-11-14T02:46:13;39.13;;;35.30;;
11514;SDS011;5814;41.936;25.556;2022-11-14T02:48:40;45.87;;;41.03;;
11514;SDS011;5814;41.936;25.556;2022-11-14T02:51:07;41.13;;;37.03;;
11514;SDS011;5814;41.936;25.556;2022-11-14T02:53:35;41.53;;;37.30;;
11514;SDS011;5814;41.936;25.556;2022-11-14T02:56:02;48.60;;;43.33;;
11514;SDS011;5814;41.936;25.556;2022-11-14T02:58:29;49.93;;;44.20;;
11514;SDS011;5814;41.936;25.556;2022-11-14T03:00:57;51.10;;;45.67;;
11514;SDS011;5814;41.936;25.556;2022-11-14T03:03:24;50.13;;;43.23;;
11514;SDS011;5814;41.936;25.556;2022-11-14T03:05:51;47.87;;;42.70;;
11514;SDS011;5814;41.936;25.556;2022-11-14T03:08:18;48.37;;;43.27;;
11514;SDS011;5814;41.936;25.556;2022-11-14T03:10:45;44.70;;;40.10;;
11514;SDS011;5814;41.936;25.556;2022-11-14T03:13:12;46.23;;;41.27;;
11514;SDS011;5814;41.936;25.556;2022-11-14T03:15:40;37.23;;;33.07;;
11514;SDS011;5814;41.936;25.556;2022-11-14T03:18:07;44.60;;;39.93;;
11514;SDS011;5814;41.936;25.556;2022-11-14T03:20:34;45.33;;;40.47;;
11514;SDS011;5814;41.936;25.556;2022-11-14T03:23:01;44.10;;;39.33;;
11514;SDS011;5814;41.936;25.556;2022-11-14T03:25:28;36.77;;;32.97;;
11514;SDS011;5814;41.936;25.556;2022-11-14T03:27:56;42.67;;;38.27;;
11514;SDS011;5814;41.936;25.556;2022-11-14T03:30:23;43.13;;;38.80;;
11514;SDS011;5814;41.936;25.556;2022-11-14T03:32:50;40.77;;;36.63;;
11514;SDS011;5814;41.936;25.556;2022-11-14T03:35:17;42.00;;;36.63;;
11514;SDS011;5814;41.936;25.556;2022-11-14T03:37:44;41.50;;;37.27;;
11514;SDS011;5814;41.936;25.556;2022-11-14T03:40:11;42.60;;;38.23;;
11514;SDS011;5814;41.936;25.556;2022-11-14T03:42:39;40.07;;;35.90;;
11514;SDS011;5814;41.936;25.556;2022-11-14T03:45:06;33.20;;;30.10;;
11514;SDS011;5814;41.936;25.556;2022-11-14T03:47:34;39.00;;;35.13;;
11514;SDS011;5814;41.936;25.556;2022-11-14T03:50:02;39.87;;;35.87;;
11514;SDS011;5814;41.936;25.556;2022-11-14T03:52:29;38.77;;;35.10;;
11514;SDS011;5814;41.936;25.556;2022-11-14T03:54:56;38.57;;;34.37;;
11514;SDS011;5814;41.936;25.556;2022-11-14T03:57:23;38.33;;;34.43;;
11514;SDS011;5814;41.936;25.556;2022-11-14T03:59:51;40.73;;;35.50;;
11514;SDS011;5814;41.936;25.556;2022-11-14T04:02:18;39.20;;;34.73;;
11514;SDS011;5814;41.936;25.556;2022-11-14T04:04:45;38.43;;;34.57;;
11514;SDS011;5814;41.936;25.556;2022-11-14T04:07:12;38.57;;;34.70;;
11514;SDS011;5814;41.936;25.556;2022-11-14T04:09:39;38.43;;;34.40;;
11514;SDS011;5814;41.936;25.556;2022-11-14T04:12:06;38.10;;;34.40;;
11514;SDS011;5814;41.936;25.556;2022-11-14T04:14:34;37.27;;;33.63;;
11514;SDS011;5814;41.936;25.556;2022-11-14T04:17:01;38.60;;;34.90;;
11514;SDS011;5814;41.936;25.556;2022-11-14T04:19:28;39.70;;;35.70;;
11514;SDS011;5814;41.936;25.556;2022-11-14T04:21:55;38.53;;;34.67;;
11514;SDS011;5814;41.936;25.556;2022-11-14T04:24:22;39.33;;;35.47;;
11514;SDS011;5814;41.936;25.556;2022-11-14T04:26:49;39.57;;;34.87;;
11514;SDS011;5814;41.936;25.556;2022-11-14T04:29:17;38.17;;;34.30;;
11514;SDS011;5814;41.936;25.556;2022-11-14T04:31:44;41.40;;;37.03;;
11514;SDS011;5814;41.936;25.556;2022-11-14T04:34:11;38.87;;;35.13;;
11514;SDS011;5814;41.936;25.556;2022-11-14T04:36:38;38.73;;;34.80;;
11514;SDS011;5814;41.936;25.556;2022-11-14T04:39:05;32.57;;;29.60;;
11514;SDS011;5814;41.936;25.556;2022-11-14T04:41:33;39.53;;;35.43;;
11514;SDS011;5814;41.936;25.556;2022-11-14T04:44:00;40.60;;;36.23;;
11514;SDS011;5814;41.936;25.556;2022-11-14T04:46:27;39.40;;;35.37;;
11514;SDS011;5814;41.936;25.556;2022-11-14T04:48:54;39.97;;;35.57;;
11514;SDS011;5814;41.936;25.556;2022-11-14T04:51:21;40.17;;;35.93;;
11514;SDS011;5814;41.936;25.556;2022-11-14T04:53:48;42.00;;;37.63;;
11514;SDS011;5814;41.936;25.556;2022-11-14T04:56:16;45.57;;;40.80;;
11514;SDS011;5814;41.936;25.556;2022-11-14T04:58:43;42.20;;;37.57;;
11514;SDS011;5814;41.936;25.556;2022-11-14T05:01:10;42.70;;;37.83;;
11514;SDS011;5814;41.936;25.556;2022-11-14T05:03:37;35.77;;;32.27;;
11514;SDS011;5814;41.936;25.556;2022-11-14T05:06:04;38.57;;;34.30;;
11514;SDS011;5814;41.936;25.556;2022-11-14T05:08:32;38.40;;;34.23;;
11514;SDS011;5814;41.936;25.556;2022-11-14T05:11:00;36.10;;;32.60;;
11514;SDS011;5814;41.936;25.556;2022-11-14T05:13:27;37.23;;;33.43;;
11514;SDS011;5814;41.936;25.556;2022-11-14T05:15:57;40.03;;;35.77;;
11514;SDS011;5814;41.936;25.556;2022-11-14T05:18:24;38.10;;;34.30;;
11514;SDS011;5814;41.936;25.556;2022-11-14T05:20:51;43.33;;;37.13;;
11514;SDS011;5814;41.936;25.556;2022-11-14T05:23:19;48.43;;;41.13;;
11514;SDS011;5814;41.936;25.556;2022-11-14T05:25:46;53.80;;;45.20;;
11514;SDS011;5814;41.936;25.556;2022-11-14T05:28:13;55.73;;;46.53;;
11514;SDS011;5814;41.936;25.556;2022-11-14T05:30:40;51.77;;;45.73;;
11514;SDS011;5814;41.936;25.556;2022-11-14T05:33:07;51.67;;;43.27;;
11514;SDS011;5814;41.936;25.556;2022-11-14T05:35:34;49.33;;;40.43;;
11514;SDS011;5814;41.936;25.556;2022-11-14T05:38:01;51.73;;;44.23;;
11514;SDS011;5814;41.936;25.556;2022-11-14T05:40:28;46.70;;;39.77;;
11514;SDS011;5814;41.936;25.556;2022-11-14T05:42:56;50.97;;;43.93;;
11514;SDS011;5814;41.936;25.556;2022-11-14T05:45:23;52.93;;;44.97;;
11514;SDS011;5814;41.936;25.556;2022-11-14T05:47:51;54.27;;;45.00;;
11514;SDS011;5814;41.936;25.556;2022-11-14T05:50:17;56.87;;;46.77;;
11514;SDS011;5814;41.936;25.556;2022-11-14T05:52:44;62.77;;;55.10;;
11514;SDS011;5814;41.936;25.556;2022-11-14T05:55:12;55.27;;;47.90;;
11514;SDS011;5814;41.936;25.556;2022-11-14T05:57:39;49.80;;;44.20;;
11514;SDS011;5814;41.936;25.556;2022-11-14T06:00:06;49.97;;;44.60;;
11514;SDS011;5814;41.936;25.556;2022-11-14T06:02:34;66.57;;;51.90;;
11514;SDS011;5814;41.936;25.556;2022-11-14T06:05:01;52.30;;;44.63;;
11514;SDS011;5814;41.936;25.556;2022-11-14T06:07:28;37.13;;;33.67;;
11514;SDS011;5814;41.936;25.556;2022-11-14T06:09:56;48.03;;;43.03;;
11514;SDS011;5814;41.936;25.556;2022-11-14T06:12:23;47.40;;;42.57;;
11514;SDS011;5814;41.936;25.556;2022-11-14T06:14:50;45.93;;;41.33;;
11514;SDS011;5814;41.936;25.556;2022-11-14T06:17:17;48.90;;;43.60;;
11514;SDS011;5814;41.936;25.556;2022-11-14T06:19:44;50.13;;;44.97;;
11514;SDS011;5814;41.936;25.556;2022-11-14T06:22:11;50.80;;;43.40;;
11514;SDS011;5814;41.936;25.556;2022-11-14T06:24:39;53.50;;;47.63;;
11514;SDS011;5814;41.936;25.556;2022-11-14T06:27:06;48.40;;;43.17;;
11514;SDS011;5814;41.936;25.556;2022-11-14T06:29:33;47.47;;;42.60;;
11514;SDS011;5814;41.936;25.556;2022-11-14T06:32:00;50.77;;;45.60;;
11514;SDS011;5814;41.936;25.556;2022-11-14T06:34:27;51.47;;;45.80;;
11514;SDS011;5814;41.936;25.556;2022-11-14T06:36:54;50.37;;;45.37;;
11514;SDS011;5814;41.936;25.556;2022-11-14T06:39:22;39.97;;;35.93;;
11514;SDS011;5814;41.936;25.556;2022-11-14T06:41:49;51.77;;;43.83;;
11514;SDS011;5814;41.936;25.556;2022-11-14T06:44:16;41.33;;;37.23;;
11514;SDS011;5814;41.936;25.556;2022-11-14T06:46:43;49.33;;;44.13;;
11514;SDS011;5814;41.936;25.556;2022-11-14T06:49:10;64.30;;;50.07;;
11514;SDS011;5814;41.936;25.556;2022-11-14T06:51:38;44.07;;;38.63;;
11514;SDS011;5814;41.936;25.556;2022-11-14T06:54:05;50.57;;;45.37;;
11514;SDS011;5814;41.936;25.556;2022-11-14T06:56:32;46.90;;;41.63;;
11514;SDS011;5814;41.936;25.556;2022-11-14T06:58:59;50.17;;;44.47;;
11514;SDS011;5814;41.936;25.556;2022-11-14T07:01:26;60.73;;;51.37;;
11514;SDS011;5814;41.936;25.556;2022-11-14T07:03:54;50.00;;;44.77;;
11514;SDS011;5814;41.936;25.556;2022-11-14T07:06:22;50.20;;;44.97;;
11514;SDS011;5814;41.936;25.556;2022-11-14T07:08:48;47.80;;;42.63;;
11514;SDS011;5814;41.936;25.556;2022-11-14T07:11:16;46.33;;;39.97;;
11514;SDS011;5814;41.936;25.556;2022-11-14T07:13:49;44.83;;;40.30;;
11514;SDS011;5814;41.936;25.556;2022-11-14T07:16:15;43.30;;;38.97;;
11514;SDS011;5814;41.936;25.556;2022-11-14T07:18:42;43.40;;;38.77;;
11514;SDS011;5814;41.936;25.556;2022-11-14T07:21:10;41.43;;;37.33;;
11514;SDS011;5814;41.936;25.556;2022-11-14T07:23:37;41.47;;;37.00;;
11514;SDS011;5814;41.936;25.556;2022-11-14T07:26:05;40.97;;;36.70;;
11514;SDS011;5814;41.936;25.556;2022-11-14T07:28:33;43.87;;;39.10;;
11514;SDS011;5814;41.936;25.556;2022-11-14T07:31:03;53.77;;;41.63;;
11514;SDS011;5814;41.936;25.556;2022-11-14T07:33:31;54.97;;;42.97;;
11514;SDS011;5814;41.936;25.556;2022-11-14T07:35:58;53.93;;;42.70;;
11514;SDS011;5814;41.936;25.556;2022-11-14T07:38:25;51.93;;;41.97;;
11514;SDS011;5814;41.936;25.556;2022-11-14T07:40:53;53.17;;;41.67;;
11514;SDS011;5814;41.936;25.556;2022-11-14T07:43:20;46.87;;;41.40;;
11514;SDS011;5814;41.936;25.556;2022-11-14T07:45:47;54.07;;;41.83;;
11514;SDS011;5814;41.936;25.556;2022-11-14T07:48:14;45.27;;;40.50;;
11514;SDS011;5814;41.936;25.556;2022-11-14T07:50:41;45.87;;;41.00;;
11514;SDS011;5814;41.936;25.556;2022-11-14T07:53:08;44.83;;;39.83;;
11514;SDS011;5814;41.936;25.556;2022-11-14T07:55:35;43.23;;;38.63;;
11514;SDS011;5814;41.936;25.556;2022-11-14T07:58:03;47.10;;;39.13;;
11514;SDS011;5814;41.936;25.556;2022-11-14T08:00:30;43.83;;;39.00;;
11514;SDS011;5814;41.936;25.556;2022-11-14T08:02:57;43.53;;;38.80;;
11514;SDS011;5814;41.936;25.556;2022-11-14T08:05:24;43.90;;;39.27;;
11514;SDS011;5814;41.936;25.556;2022-11-14T08:07:51;57.00;;;47.50;;
11514;SDS011;5814;41.936;25.556;2022-11-14T08:10:18;46.10;;;41.13;;
11514;SDS011;5814;41.936;25.556;2022-11-14T08:12:46;35.73;;;32.20;;
11514;SDS011;5814;41.936;25.556;2022-11-14T08:15:13;30.97;;;28.17;;
11514;SDS011;5814;41.936;25.556;2022-11-14T08:17:40;30.63;;;27.77;;
11514;SDS011;5814;41.936;25.556;2022-11-14T08:20:08;38.83;;;35.00;;
11514;SDS011;5814;41.936;25.556;2022-11-14T08:22:36;36.23;;;32.73;;
11514;SDS011;5814;41.936;25.556;2022-11-14T08:25:03;35.87;;;32.47;;
11514;SDS011;5814;41.936;25.556;2022-11-14T08:27:31;34.00;;;30.47;;
11514;SDS011;5814;41.936;25.556;2022-11-14T08:29:58;32.03;;;28.70;;
11514;SDS011;5814;41.936;25.556;2022-11-14T08:32:25;36.23;;;32.47;;
11514;SDS011;5814;41.936;25.556;2022-11-14T08:34:53;33.07;;;29.77;;
11514;SDS011;5814;41.936;25.556;2022-11-14T08:37:20;34.03;;;30.83;;
11514;SDS011;5814;41.936;25.556;2022-11-14T08:39:47;35.10;;;31.63;;
11514;SDS011;5814;41.936;25.556;2022-11-14T08:42:14;34.63;;;31.33;;
11514;SDS011;5814;41.936;25.556;2022-11-14T08:44:41;34.03;;;30.53;;
11514;SDS011;5814;41.936;25.556;2022-11-14T08:47:08;37.30;;;32.07;;
11514;SDS011;5814;41.936;25.556;2022-11-14T08:49:36;33.53;;;29.40;;
11514;SDS011;5814;41.936;25.556;2022-11-14T08:52:03;33.90;;;29.43;;
11514;SDS011;5814;41.936;25.556;2022-11-14T08:54:30;32.50;;;29.23;;
11514;SDS011;5814;41.936;25.556;2022-11-14T08:56:57;31.80;;;28.63;;
11514;SDS011;5814;41.936;25.556;2022-11-14T08:59:25;33.10;;;29.50;;
11514;SDS011;5814;41.936;25.556;2022-11-14T09:01:52;30.63;;;27.60;;
11514;SDS011;5814;41.936;25.556;2022-11-14T09:04:19;32.03;;;28.63;;
11514;SDS011;5814;41.936;25.556;2022-11-14T09:06:46;32.37;;;29.00;;
11514;SDS011;5814;41.936;25.556;2022-11-14T09:09:13;34.97;;;31.23;;
11514;SDS011;5814;41.936;25.556;2022-11-14T09:11:41;33.30;;;29.70;;
11514;SDS011;5814;41.936;25.556;2022-11-14T09:14:08;31.17;;;27.97;;
11514;SDS011;5814;41.936;25.556;2022-11-14T09:16:35;35.73;;;31.77;;
11514;SDS011;5814;41.936;25.556;2022-11-14T09:19:02;36.03;;;30.80;;
11514;SDS011;5814;41.936;25.556;2022-11-14T09:21:29;36.10;;;30.83;;
11514;SDS011;5814;41.936;25.556;2022-11-14T09:23:56;32.03;;;27.23;;
11514;SDS011;5814;41.936;25.556;2022-11-14T09:26:24;33.70;;;29.53;;
11514;SDS011;5814;41.936;25.556;2022-11-14T09:28:51;31.07;;;27.70;;
11514;SDS011;5814;41.936;25.556;2022-11-14T09:31:18;33.63;;;27.63;;
11514;SDS011;5814;41.936;25.556;2022-11-14T09:33:45;29.43;;;26.43;;
11514;SDS011;5814;41.936;25.556;2022-11-14T09:36:12;29.67;;;26.67;;
11514;SDS011;5814;41.936;25.556;2022-11-14T09:38:40;27.90;;;25.07;;
11514;SDS011;5814;41.936;25.556;2022-11-14T09:41:13;26.47;;;23.77;;
11514;SDS011;5814;41.936;25.556;2022-11-14T09:46:41;25.60;;;22.67;;
11514;SDS011;5814;41.936;25.556;2022-11-14T09:49:08;29.43;;;24.83;;
11514;SDS011;5814;41.936;25.556;2022-11-14T09:51:35;30.90;;;26.17;;
11514;SDS011;5814;41.936;25.556;2022-11-14T09:54:04;27.60;;;24.70;;
11514;SDS011;5814;41.936;25.556;2022-11-14T09:56:29;28.27;;;25.27;;
11514;SDS011;5814;41.936;25.556;2022-11-14T09:58:56;26.73;;;23.60;;
11514;SDS011;5814;41.936;25.556;2022-11-14T10:04:14;25.63;;;23.07;;
11514;SDS011;5814;41.936;25.556;2022-11-14T10:06:46;24.97;;;22.30;;
11514;SDS011;5814;41.936;25.556;2022-11-14T10:09:23;23.47;;;21.07;;
11514;SDS011;5814;41.936;25.556;2022-11-14T10:12:03;25.07;;;22.67;;
11514;SDS011;5814;41.936;25.556;2022-11-14T10:14:44;27.10;;;23.20;;
11514;SDS011;5814;41.936;25.556;2022-11-14T10:17:13;27.33;;;24.60;;
11514;SDS011;5814;41.936;25.556;2022-11-14T10:19:58;28.13;;;25.33;;
11514;SDS011;5814;41.936;25.556;2022-11-14T10:25:13;26.07;;;23.27;;
11514;SDS011;5814;41.936;25.556;2022-11-14T10:27:42;25.40;;;22.80;;
11514;SDS011;5814;41.936;25.556;2022-11-14T10:30:11;29.90;;;25.47;;
11514;SDS011;5814;41.936;25.556;2022-11-14T10:32:45;27.43;;;23.90;;
11514;SDS011;5814;41.936;25.556;2022-11-14T10:35:22;26.57;;;23.77;;
11514;SDS011;5814;41.936;25.556;2022-11-14T10:39:02;39.67;;;29.37;;
11514;SDS011;5814;41.936;25.556;2022-11-14T10:40:58;31.27;;;27.90;;
11514;SDS011;5814;41.936;25.556;2022-11-14T10:43:29;32.17;;;28.63;;
11514;SDS011;5814;41.936;25.556;2022-11-14T10:46:01;35.80;;;29.50;;
11514;SDS011;5814;41.936;25.556;2022-11-14T10:48:43;34.87;;;29.17;;
11514;SDS011;5814;41.936;25.556;2022-11-14T10:53:52;36.50;;;28.53;;
11514;SDS011;5814;41.936;25.556;2022-11-14T10:56:17;32.20;;;27.57;;
11514;SDS011;5814;41.936;25.556;2022-11-14T10:58:45;33.03;;;26.67;;
11514;SDS011;5814;41.936;25.556;2022-11-14T11:03:51;33.43;;;27.80;;
11514;SDS011;5814;41.936;25.556;2022-11-14T11:06:24;35.30;;;27.73;;
11514;SDS011;5814;41.936;25.556;2022-11-14T11:08:51;36.13;;;30.27;;
11514;SDS011;5814;41.936;25.556;2022-11-14T11:11:24;26.43;;;23.63;;
11514;SDS011;5814;41.936;25.556;2022-11-14T11:13:55;29.23;;;24.33;;
11514;SDS011;5814;41.936;25.556;2022-11-14T11:16:22;28.77;;;25.67;;
11514;SDS011;5814;41.936;25.556;2022-11-14T11:18:49;21.70;;;19.77;;
11514;SDS011;5814;41.936;25.556;2022-11-14T11:21:17;21.17;;;19.30;;
11514;SDS011;5814;41.936;25.556;2022-11-14T11:26:18;19.47;;;17.87;;
11514;SDS011;5814;41.936;25.556;2022-11-14T11:28:59;22.37;;;20.13;;
11514;SDS011;5814;41.936;25.556;2022-11-14T11:31:12;22.00;;;19.73;;
11514;SDS011;5814;41.936;25.556;2022-11-14T11:33:39;22.63;;;20.40;;
11514;SDS011;5814;41.936;25.556;2022-11-14T11:36:11;25.87;;;23.40;;
11514;SDS011;5814;41.936;25.556;2022-11-14T11:38:39;22.00;;;20.00;;
11514;SDS011;5814;41.936;25.556;2022-11-14T11:41:15;21.87;;;19.67;;
11514;SDS011;5814;41.936;25.556;2022-11-14T11:43:46;19.97;;;18.27;;
11514;SDS011;5814;41.936;25.556;2022-11-14T11:46:17;21.37;;;19.47;;
11514;SDS011;5814;41.936;25.556;2022-11-14T11:48:42;20.50;;;18.73;;
11514;SDS011;5814;41.936;25.556;2022-11-14T11:51:11;18.53;;;17.00;;
11514;SDS011;5814;41.936;25.556;2022-11-14T11:53:39;19.13;;;17.17;;
11514;SDS011;5814;41.936;25.556;2022-11-14T11:56:15;20.77;;;18.87;;
11514;SDS011;5814;41.936;25.556;2022-11-14T11:58:45;20.37;;;18.30;;
11514;SDS011;5814;41.936;25.556;2022-11-14T12:01:11;19.90;;;18.23;;
11514;SDS011;5814;41.936;25.556;2022-11-14T12:03:40;23.17;;;21.00;;
11514;SDS011;5814;41.936;25.556;2022-11-14T12:06:10;19.23;;;17.50;;
11514;SDS011;5814;41.936;25.556;2022-11-14T12:08:55;23.07;;;20.60;;
11514;SDS011;5814;41.936;25.556;2022-11-14T12:11:24;18.50;;;17.03;;
11514;SDS011;5814;41.936;25.556;2022-11-14T12:13:55;19.70;;;18.10;;
11514;SDS011;5814;41.936;25.556;2022-11-14T12:16:25;20.10;;;18.53;;
11514;SDS011;5814;41.936;25.556;2022-11-14T12:21:43;20.23;;;18.80;;
11514;SDS011;5814;41.936;25.556;2022-11-14T12:24:44;18.37;;;16.97;;
11514;SDS011;5814;41.936;25.556;2022-11-14T12:27:24;18.03;;;16.63;;
11514;SDS011;5814;41.936;25.556;2022-11-14T12:29:56;21.73;;;19.97;;
11514;SDS011;5814;41.936;25.556;2022-11-14T12:32:32;21.70;;;19.90;;
11514;SDS011;5814;41.936;25.556;2022-11-14T12:34:58;19.27;;;17.70;;
11514;SDS011;5814;41.936;25.556;2022-11-14T12:37:28;18.77;;;17.33;;
11514;SDS011;5814;41.936;25.556;2022-11-14T12:40:17;22.63;;;20.60;;
11514;SDS011;5814;41.936;25.556;2022-11-14T12:42:51;19.97;;;18.37;;
11514;SDS011;5814;41.936;25.556;2022-11-14T12:48:13;18.30;;;17.07;;
11514;SDS011;5814;41.936;25.556;2022-11-14T12:50:45;18.13;;;16.77;;
11514;SDS011;5814;41.936;25.556;2022-11-14T12:55:52;18.87;;;17.27;;
11514;SDS011;5814;41.936;25.556;2022-11-14T12:58:22;18.57;;;17.10;;
11514;SDS011;5814;41.936;25.556;2022-11-14T13:00:56;18.83;;;17.23;;
11514;SDS011;5814;41.936;25.556;2022-11-14T13:06:15;17.23;;;16.03;;
11514;SDS011;5814;41.936;25.556;2022-11-14T13:09:26;18.00;;;16.50;;
11514;SDS011;5814;41.936;25.556;2022-11-14T13:11:55;17.70;;;16.30;;
11514;SDS011;5814;41.936;25.556;2022-11-14T13:14:28;15.67;;;14.60;;
11514;SDS011;5814;41.936;25.556;2022-11-14T13:19:44;19.30;;;17.50;;
11514;SDS011;5814;41.936;25.556;2022-11-14T13:22:22;20.37;;;18.77;;
11514;SDS011;5814;41.936;25.556;2022-11-14T13:25:18;20.03;;;18.47;;
11514;SDS011;5814;41.936;25.556;2022-11-14T13:27:42;17.53;;;16.23;;
11514;SDS011;5814;41.936;25.556;2022-11-14T13:30:09;20.40;;;18.73;;
11514;SDS011;5814;41.936;25.556;2022-11-14T13:35:25;24.43;;;22.23;;
11514;SDS011;5814;41.936;25.556;2022-11-14T13:43:51;29.87;;;26.97;;
11514;SDS011;5814;41.936;25.556;2022-11-14T13:48:54;28.03;;;25.43;;
11514;SDS011;5814;41.936;25.556;2022-11-14T13:51:21;29.77;;;26.93;;
11514;SDS011;5814;41.936;25.556;2022-11-14T13:53:48;28.53;;;25.80;;
11514;SDS011;5814;41.936;25.556;2022-11-14T13:56:33;28.10;;;25.23;;
11514;SDS011;5814;41.936;25.556;2022-11-14T13:59:23;28.23;;;25.63;;
11514;SDS011;5814;41.936;25.556;2022-11-14T14:01:50;27.37;;;24.87;;
11514;SDS011;5814;41.936;25.556;2022-11-14T14:04:29;29.37;;;26.20;;
11514;SDS011;5814;41.936;25.556;2022-11-14T14:07:06;28.40;;;25.70;;
11514;SDS011;5814;41.936;25.556;2022-11-14T14:18:13;28.30;;;25.53;;
11514;SDS011;5814;41.936;25.556;2022-11-14T14:20:46;28.10;;;25.53;;
11514;SDS011;5814;41.936;25.556;2022-11-14T14:23:18;27.87;;;25.20;;
11514;SDS011;5814;41.936;25.556;2022-11-14T14:25:55;28.27;;;25.67;;
11514;SDS011;5814;41.936;25.556;2022-11-14T14:28:46;25.27;;;23.07;;
11514;SDS011;5814;41.936;25.556;2022-11-14T14:31:24;27.10;;;24.60;;
11514;SDS011;5814;41.936;25.556;2022-11-14T14:33:51;32.37;;;28.77;;
11514;SDS011;5814;41.936;25.556;2022-11-14T14:36:21;30.37;;;26.70;;
11514;SDS011;5814;41.936;25.556;2022-11-14T14:38:46;29.70;;;26.57;;
11514;SDS011;5814;41.936;25.556;2022-11-14T14:41:14;28.70;;;25.93;;
11514;SDS011;5814;41.936;25.556;2022-11-14T14:43:41;29.20;;;26.17;;
11514;SDS011;5814;41.936;25.556;2022-11-14T14:46:08;30.03;;;26.80;;
11514;SDS011;5814;41.936;25.556;2022-11-14T14:48:37;31.37;;;27.23;;
11514;SDS011;5814;41.936;25.556;2022-11-14T14:51:02;30.77;;;27.47;;
11514;SDS011;5814;41.936;25.556;2022-11-14T14:53:30;38.07;;;29.40;;
11514;SDS011;5814;41.936;25.556;2022-11-14T14:55:58;34.03;;;29.20;;
11514;SDS011;5814;41.936;25.556;2022-11-14T14:58:28;33.10;;;29.50;;
11514;SDS011;5814;41.936;25.556;2022-11-14T15:01:12;33.90;;;30.23;;
11514;SDS011;5814;41.936;25.556;2022-11-14T15:03:38;37.67;;;31.10;;
11514;SDS011;5814;41.936;25.556;2022-11-14T15:08:43;38.63;;;32.70;;
11514;SDS011;5814;41.936;25.556;2022-11-14T15:11:11;43.93;;;34.43;;
11514;SDS011;5814;41.936;25.556;2022-11-14T15:13:38;37.60;;;33.57;;
11514;SDS011;5814;41.936;25.556;2022-11-14T15:16:05;45.20;;;35.67;;
11514;SDS011;5814;41.936;25.556;2022-11-14T15:18:34;50.37;;;37.97;;
11514;SDS011;5814;41.936;25.556;2022-11-14T15:21:15;56.97;;;37.63;;
11514;SDS011;5814;41.936;25.556;2022-11-14T15:26:24;49.30;;;37.40;;